createdAt,value
2023-01-20T00:01:46.646Z,83.06
2023-01-20T00:04:15.050Z,82.88
2023-01-20T00:06:42.024Z,82.92
2023-01-20T00:09:16.917Z,83.29
2023-01-20T00:11:44.790Z,83.17
2023-01-20T00:14:11.760Z,83.32
2023-01-20T00:16:39.026Z,83.47
2023-01-20T00:19:06.045Z,83.66
2023-01-20T00:21:35.029Z,83.47
2023-01-20T00:24:02.002Z,83.62
2023-01-20T00:26:28.980Z,83.70
2023-01-20T00:28:58.006Z,83.61
2023-01-20T00:31:31.009Z,83.83
2023-01-20T00:34:00.360Z,83.85
2023-01-20T00:36:34.137Z,83.96
2023-01-20T00:39:03.224Z,83.80
2023-01-20T00:41:30.500Z,84.05
2023-01-20T00:43:57.415Z,84.05
2023-01-20T00:46:24.607Z,84.22
2023-01-20T00:48:51.600Z,84.03
2023-01-20T00:51:18.558Z,83.94
2023-01-20T00:53:45.528Z,84.11
2023-01-20T00:56:12.544Z,83.99
2023-01-20T00:58:39.515Z,84.14
2023-01-20T01:01:06.563Z,84.05
2023-01-20T01:03:33.792Z,84.13
2023-01-20T01:06:12.840Z,84.02
2023-01-20T01:08:40.388Z,84.11
2023-01-20T01:11:07.894Z,84.05
2023-01-20T01:13:36.151Z,84.05
2023-01-20T01:16:03.357Z,84.09
2023-01-20T01:18:30.325Z,84.20
2023-01-20T01:20:57.873Z,83.96
2023-01-20T01:23:24.822Z,84.03
2023-01-20T01:26:07.127Z,83.91
2023-01-20T01:28:34.171Z,84.08
2023-01-20T01:31:06.467Z,84.12
2023-01-20T01:33:33.815Z,83.95
2023-01-20T01:36:03.430Z,83.75
2023-01-20T01:38:30.522Z,84.17
2023-01-20T01:40:57.726Z,83.81
2023-01-20T01:43:37.135Z,83.85
2023-01-20T01:46:05.312Z,83.74
2023-01-20T01:48:45.513Z,83.78
2023-01-20T01:51:24.467Z,83.65
2023-01-20T01:53:57.859Z,83.83
2023-01-20T01:56:26.447Z,83.80
2023-01-20T01:58:59.307Z,83.82
2023-01-20T02:01:27.925Z,83.73
2023-01-20T02:04:02.236Z,83.39
2023-01-20T02:06:34.029Z,83.61
2023-01-20T02:09:03.703Z,83.66
2023-01-20T02:11:37.085Z,83.79
2023-01-20T02:14:04.470Z,83.79
2023-01-20T02:16:57.354Z,83.84
2023-01-20T02:19:35.974Z,84.07
2023-01-20T02:22:30.398Z,83.84
2023-01-20T02:25:29.683Z,84.22
2023-01-20T02:28:09.810Z,84.00
2023-01-20T02:31:04.135Z,84.07
2023-01-20T02:33:44.310Z,83.98
2023-01-20T02:36:27.075Z,83.95
2023-01-20T02:39:08.286Z,83.85
2023-01-20T02:42:04.728Z,83.93
2023-01-20T02:44:41.087Z,83.82
2023-01-20T02:47:36.775Z,83.89
2023-01-20T02:50:42.192Z,84.12
2023-01-20T02:53:12.862Z,83.87
2023-01-20T02:55:46.878Z,83.70
2023-01-20T02:58:40.222Z,83.71
2023-01-20T03:01:34.287Z,83.82
2023-01-20T03:04:04.201Z,83.77
2023-01-20T03:06:38.315Z,83.83
2023-01-20T03:09:12.976Z,83.64
2023-01-20T03:11:47.671Z,83.79
2023-01-20T03:14:15.676Z,83.69
2023-01-20T03:16:43.516Z,83.80
2023-01-20T03:19:11.432Z,83.88
2023-01-20T03:21:38.375Z,83.74
2023-01-20T03:24:06.696Z,83.90
2023-01-20T03:26:34.433Z,83.95
2023-01-20T03:29:11.617Z,84.02
2023-01-20T03:31:47.227Z,83.82
2023-01-20T03:34:20.276Z,84.09
2023-01-20T03:36:48.153Z,84.05
2023-01-20T03:39:15.567Z,84.27
2023-01-20T03:42:00.453Z,84.19
2023-01-20T03:45:10.796Z,84.08
2023-01-20T03:47:56.431Z,84.15
2023-01-20T03:50:38.404Z,84.14
2023-01-20T03:53:11.070Z,84.01
2023-01-20T03:55:56.090Z,83.91
2023-01-20T03:58:32.347Z,84.31
2023-01-20T04:01:14.973Z,84.04
2023-01-20T04:03:49.222Z,84.33
2023-01-20T04:06:18.473Z,84.36
2023-01-20T04:08:56.493Z,84.44
2023-01-20T04:11:23.876Z,84.29
2023-01-20T04:13:51.538Z,84.44
2023-01-20T04:16:20.555Z,84.48
2023-01-20T04:18:50.890Z,84.46
2023-01-20T04:21:47.291Z,84.45
2023-01-20T04:24:21.832Z,84.53
2023-01-20T04:26:48.823Z,84.18
2023-01-20T04:29:15.800Z,84.67
2023-01-20T04:31:42.868Z,84.59
2023-01-20T04:34:15.950Z,84.61
2023-01-20T04:36:43.197Z,84.55
2023-01-20T04:39:10.263Z,84.66
2023-01-20T04:41:37.317Z,84.57
2023-01-20T04:44:04.250Z,84.79
2023-01-20T04:46:31.206Z,85.04
2023-01-20T04:48:58.146Z,84.85
2023-01-20T04:51:25.065Z,84.61
2023-01-20T04:53:56.813Z,84.88
2023-01-20T04:56:24.147Z,85.01
2023-01-20T04:58:51.192Z,84.98
2023-01-20T05:01:18.652Z,84.96
2023-01-20T05:03:45.593Z,85.02
2023-01-20T05:06:13.099Z,85.01
2023-01-20T05:08:40.477Z,84.99
2023-01-20T05:11:07.526Z,85.09
2023-01-20T05:13:38.571Z,85.17
2023-01-20T05:16:07.678Z,85.20
2023-01-20T05:18:35.443Z,85.07
2023-01-20T05:21:05.273Z,85.20
2023-01-20T05:23:32.168Z,85.23
2023-01-20T05:25:59.165Z,85.20
2023-01-20T05:28:26.175Z,85.16
2023-01-20T05:30:53.226Z,84.79
2023-01-20T05:33:20.354Z,85.06
2023-01-20T05:35:47.298Z,85.24
2023-01-20T05:38:14.305Z,85.26
2023-01-20T05:40:41.312Z,85.55
2023-01-20T05:43:08.428Z,85.46
2023-01-20T05:45:35.662Z,85.45
2023-01-20T05:48:03.321Z,85.47
2023-01-20T05:50:30.633Z,85.67
2023-01-20T05:52:57.651Z,85.80
2023-01-20T05:55:24.676Z,86.04
2023-01-20T05:57:51.632Z,86.09
2023-01-20T06:00:19.675Z,86.04
2023-01-20T06:02:46.859Z,85.86
2023-01-20T06:05:14.358Z,85.95
2023-01-20T06:07:41.539Z,85.89
2023-01-20T06:10:09.287Z,85.58
2023-01-20T06:12:36.255Z,85.58
2023-01-20T06:15:03.923Z,85.60
2023-01-20T06:17:30.893Z,85.47
2023-01-20T06:19:58.542Z,85.51
2023-01-20T06:22:26.160Z,85.66
2023-01-20T06:24:53.444Z,85.67
2023-01-20T06:27:20.630Z,85.74
2023-01-20T06:29:47.824Z,85.53
2023-01-20T06:32:14.823Z,85.40
2023-01-20T06:34:41.773Z,85.46
2023-01-20T06:37:08.777Z,85.42
2023-01-20T06:39:35.923Z,85.46
2023-01-20T06:42:02.941Z,85.41
2023-01-20T06:44:29.881Z,85.64
2023-01-20T06:46:58.090Z,85.63
2023-01-20T06:49:26.550Z,85.68
2023-01-20T06:51:56.276Z,85.67
2023-01-20T06:54:23.222Z,85.62
2023-01-20T06:56:50.214Z,85.43
2023-01-20T06:59:17.230Z,85.64
2023-01-20T07:01:44.303Z,85.70
2023-01-20T07:04:14.536Z,85.69
2023-01-20T07:06:42.187Z,85.59
2023-01-20T07:09:12.017Z,85.49
2023-01-20T07:11:39.824Z,85.96
2023-01-20T07:14:07.571Z,86.03
2023-01-20T07:16:35.016Z,85.90
2023-01-20T07:19:02.254Z,85.73
2023-01-20T07:21:29.448Z,85.77
2023-01-20T07:23:59.095Z,85.76
2023-01-20T07:26:26.649Z,85.73
2023-01-20T07:28:53.882Z,85.63
2023-01-20T07:31:26.782Z,85.58
2023-01-20T07:33:57.658Z,85.49
2023-01-20T07:36:25.249Z,85.65
2023-01-20T07:38:53.646Z,85.51
2023-01-20T07:41:22.340Z,85.63
2023-01-20T07:43:51.725Z,85.44
2023-01-20T07:46:19.875Z,85.70
2023-01-20T07:48:46.971Z,85.87
2023-01-20T07:51:15.799Z,86.10
2023-01-20T07:53:47.028Z,85.98
2023-01-20T07:56:21.143Z,85.85
2023-01-20T07:58:50.495Z,86.02
2023-01-20T08:01:20.414Z,85.89
2023-01-20T08:03:48.022Z,85.77
2023-01-20T08:06:19.145Z,86.05
2023-01-20T08:08:46.684Z,85.83
2023-01-20T08:11:15.384Z,85.91
2023-01-20T08:13:43.283Z,85.88
2023-01-20T08:16:13.524Z,85.70
2023-01-20T08:18:40.851Z,85.73
2023-01-20T08:21:26.560Z,85.72
2023-01-20T08:23:56.754Z,85.65
2023-01-20T08:26:27.347Z,85.77
2023-01-20T08:28:55.802Z,85.89
2023-01-20T08:31:24.889Z,85.74
2023-01-20T08:33:57.546Z,85.91
2023-01-20T08:36:29.726Z,85.72
2023-01-20T08:38:59.392Z,85.56
2023-01-20T08:41:36.974Z,85.63
2023-01-20T08:44:07.315Z,85.62
2023-01-20T08:46:34.983Z,85.59
2023-01-20T08:49:02.279Z,85.38
2023-01-20T08:51:32.224Z,85.39
2023-01-20T08:54:00.004Z,85.54
2023-01-20T08:56:28.193Z,85.42
2023-01-20T08:58:59.775Z,84.98
2023-01-20T09:01:30.773Z,85.12
2023-01-20T09:04:05.879Z,85.15
2023-01-20T09:06:40.586Z,84.87
2023-01-20T09:09:08.038Z,85.01
2023-01-20T09:11:35.826Z,84.66
2023-01-20T09:14:03.037Z,84.66
2023-01-20T09:16:30.003Z,84.73
2023-01-20T09:18:56.976Z,84.62
2023-01-20T09:21:24.204Z,84.54
2023-01-20T09:23:51.254Z,84.35
2023-01-20T09:26:34.208Z,84.45
2023-01-20T09:29:11.776Z,84.24
2023-01-20T09:31:44.990Z,83.88
2023-01-20T09:34:19.634Z,83.77
2023-01-20T09:37:19.600Z,83.83
2023-01-20T09:40:05.732Z,83.85
2023-01-20T09:43:09.217Z,83.98
2023-01-20T09:45:48.154Z,83.61
2023-01-20T09:49:01.455Z,83.74
2023-01-20T09:52:41.389Z,83.57
2023-01-20T09:55:22.185Z,83.72
2023-01-20T09:57:59.355Z,83.39
2023-01-20T10:00:31.750Z,83.25
2023-01-20T10:03:18.796Z,83.42
2023-01-20T10:05:50.315Z,83.38
2023-01-20T10:08:34.315Z,83.00
2023-01-20T10:11:12.105Z,82.86
2023-01-20T10:14:24.409Z,82.98
2023-01-20T10:17:16.891Z,82.63
2023-01-20T10:20:28.217Z,82.52
2023-01-20T10:23:40.055Z,82.46
2023-01-20T10:26:16.307Z,82.63
2023-01-20T10:28:56.036Z,82.30
2023-01-20T10:31:28.566Z,82.39
2023-01-20T10:34:03.895Z,82.32
2023-01-20T10:36:32.079Z,82.12
2023-01-20T10:39:21.956Z,81.83
2023-01-20T10:42:03.564Z,81.90
2023-01-20T10:44:35.624Z,81.41
2023-01-20T10:47:29.998Z,81.33
2023-01-20T10:50:10.944Z,81.10
2023-01-20T10:52:46.700Z,80.96
2023-01-20T10:55:46.006Z,81.18
2023-01-20T10:58:28.335Z,81.50
2023-01-20T11:00:56.039Z,81.09
2023-01-20T11:03:24.333Z,81.45
2023-01-20T11:05:52.708Z,81.05
2023-01-20T11:08:29.365Z,80.99
2023-01-20T11:11:21.984Z,80.33
2023-01-20T11:13:51.860Z,80.71
2023-01-20T11:16:31.503Z,80.39
2023-01-20T11:19:04.849Z,80.20
2023-01-20T11:21:37.137Z,79.98
2023-01-20T11:24:36.505Z,79.72
2023-01-20T11:27:12.995Z,80.04
2023-01-20T11:29:46.651Z,79.49
2023-01-20T11:32:35.953Z,79.69
2023-01-20T11:35:25.586Z,79.84
2023-01-20T11:37:52.820Z,80.17
2023-01-20T11:40:26.525Z,80.05
2023-01-20T11:42:54.887Z,80.15
2023-01-20T11:45:32.448Z,79.84
2023-01-20T11:48:25.851Z,79.65
2023-01-20T11:51:01.562Z,79.57
2023-01-20T11:53:31.892Z,79.33
2023-01-20T11:56:03.740Z,79.20
2023-01-20T11:58:50.645Z,79.21
2023-01-20T12:01:27.929Z,79.17
2023-01-20T12:04:10.396Z,78.86
2023-01-20T12:06:51.942Z,78.71
2023-01-20T12:09:25.469Z,78.81
2023-01-20T12:12:05.823Z,78.71
2023-01-20T12:15:02.352Z,78.33
2023-01-20T12:17:41.234Z,78.53
2023-01-20T12:20:35.429Z,78.43
2023-01-20T12:23:58.099Z,78.59
2023-01-20T12:26:28.309Z,78.26
2023-01-20T12:29:18.180Z,78.35
2023-01-20T12:31:49.104Z,78.43
2023-01-20T12:34:27.270Z,78.14
2023-01-20T12:37:00.527Z,78.11
2023-01-20T12:40:05.060Z,78.08
2023-01-20T12:42:56.043Z,77.99
2023-01-20T12:45:41.567Z,77.97
2023-01-20T12:48:50.975Z,77.67
2023-01-20T12:51:50.723Z,77.44
2023-01-20T12:54:49.238Z,77.52
2023-01-20T12:57:31.113Z,77.65
2023-01-20T13:00:26.411Z,77.30
2023-01-20T13:03:00.701Z,77.50
2023-01-20T13:06:07.399Z,77.17
2023-01-20T13:08:45.544Z,77.31
2023-01-20T13:11:55.214Z,77.60
2023-01-20T13:14:46.924Z,77.21
2023-01-20T13:17:29.581Z,77.26
2023-01-20T13:20:05.179Z,77.59
2023-01-20T13:22:32.294Z,77.31
2023-01-20T13:25:05.023Z,77.67
2023-01-20T13:27:37.677Z,77.36
2023-01-20T13:30:07.925Z,77.46
2023-01-20T13:32:37.442Z,77.51
2023-01-20T13:35:23.878Z,77.78
2023-01-20T13:37:56.698Z,77.49
2023-01-20T13:40:38.941Z,77.28
2023-01-20T13:43:25.290Z,77.02
2023-01-20T13:46:07.338Z,77.05
2023-01-20T13:48:36.820Z,77.08
2023-01-20T13:51:15.765Z,77.00
2023-01-20T13:53:46.123Z,76.79
2023-01-20T13:56:38.056Z,76.77
2023-01-20T13:59:08.575Z,76.83
2023-01-20T14:01:37.299Z,76.61
2023-01-20T14:04:21.961Z,76.58
2023-01-20T14:06:52.012Z,76.68
2023-01-20T14:09:26.298Z,76.70
2023-01-20T14:11:56.219Z,76.40
2023-01-20T14:14:26.242Z,76.14
2023-01-20T14:16:53.759Z,76.18
2023-01-20T14:19:35.300Z,76.25
2023-01-20T14:22:24.090Z,76.73
2023-01-20T14:24:54.028Z,76.71
2023-01-20T14:27:29.666Z,76.61
2023-01-20T14:30:19.280Z,76.65
2023-01-20T14:32:46.630Z,76.61
2023-01-20T14:35:31.980Z,76.67
2023-01-20T14:37:59.807Z,76.51
2023-01-20T14:40:33.089Z,76.65
2023-01-20T14:43:22.701Z,76.70
2023-01-20T14:45:51.867Z,77.11
2023-01-20T14:48:33.492Z,76.84
2023-01-20T14:51:04.223Z,77.03
2023-01-20T14:53:31.324Z,76.74
2023-01-20T14:56:04.711Z,77.23
2023-01-20T14:58:31.801Z,77.27
2023-01-20T15:01:03.955Z,77.07
2023-01-20T15:03:31.804Z,77.39
2023-01-20T15:06:05.792Z,77.33
2023-01-20T15:08:32.648Z,77.18
2023-01-20T15:11:18.374Z,77.08
2023-01-20T15:14:08.323Z,77.24
2023-01-20T15:16:44.198Z,77.15
2023-01-20T15:19:16.839Z,77.20
2023-01-20T15:21:53.014Z,77.29
2023-01-20T15:24:23.643Z,77.62
2023-01-20T15:26:53.504Z,77.88
2023-01-20T15:29:32.410Z,77.92
2023-01-20T15:32:03.132Z,78.04
2023-01-20T15:34:30.129Z,77.80
2023-01-20T15:36:57.356Z,77.94
2023-01-20T15:39:30.295Z,77.73
2023-01-20T15:41:58.434Z,77.89
2023-01-20T15:44:26.693Z,77.93
2023-01-20T15:46:57.244Z,77.90
2023-01-20T15:49:25.408Z,78.09
2023-01-20T15:51:52.856Z,78.09
2023-01-20T15:54:19.801Z,78.39
2023-01-20T15:56:46.873Z,78.43
2023-01-20T15:59:16.950Z,78.64
2023-01-20T16:01:49.894Z,78.49
2023-01-20T16:04:18.287Z,78.76
2023-01-20T16:06:45.474Z,78.86
2023-01-20T16:09:37.211Z,79.19
2023-01-20T16:12:04.381Z,79.29
2023-01-20T16:14:31.320Z,79.43
2023-01-20T16:16:58.242Z,79.40
2023-01-20T16:19:25.279Z,79.27
2023-01-20T16:21:52.181Z,79.20
2023-01-20T16:24:19.134Z,79.18
2023-01-20T16:26:47.169Z,79.24
2023-01-20T16:29:14.116Z,79.34
2023-01-20T16:31:41.161Z,79.43
2023-01-20T16:34:08.367Z,79.40
2023-01-20T16:36:35.335Z,79.57
2023-01-20T16:39:02.382Z,79.81
2023-01-20T16:41:30.902Z,79.96
2023-01-20T16:43:58.562Z,80.02
2023-01-20T16:46:29.482Z,79.93
2023-01-20T16:49:01.740Z,80.17
2023-01-20T16:51:31.015Z,80.31
2023-01-20T16:53:59.265Z,80.10
2023-01-20T16:56:30.084Z,80.44
2023-01-20T16:59:02.210Z,80.33
2023-01-20T17:01:30.605Z,80.38
2023-01-20T17:04:02.222Z,80.40
2023-01-20T17:06:33.468Z,80.49
2023-01-20T17:09:04.037Z,80.52
2023-01-20T17:11:36.715Z,80.70
2023-01-20T17:14:07.570Z,80.80
2023-01-20T17:16:35.522Z,80.71
2023-01-20T17:19:03.058Z,80.83
2023-01-20T17:21:33.575Z,80.78
2023-01-20T17:24:03.934Z,81.07
2023-01-20T17:26:31.897Z,81.09
2023-01-20T17:29:02.874Z,81.24
2023-01-20T17:31:33.166Z,81.19
2023-01-20T17:34:00.215Z,81.11
2023-01-20T17:36:27.225Z,81.19
2023-01-20T17:38:54.156Z,81.31
2023-01-20T17:41:21.150Z,81.33
2023-01-20T17:43:48.088Z,81.35
2023-01-20T17:46:30.014Z,81.30
2023-01-20T17:48:58.847Z,81.39
2023-01-20T17:51:28.689Z,81.31
2023-01-20T17:53:58.310Z,81.31
2023-01-20T17:56:25.837Z,81.44
2023-01-20T17:58:53.988Z,81.66
2023-01-20T18:01:28.189Z,81.49
2023-01-20T18:03:58.754Z,81.50
2023-01-20T18:06:27.494Z,81.39
2023-01-20T18:09:01.277Z,81.60
2023-01-20T18:11:32.679Z,81.67
2023-01-20T18:14:00.642Z,81.45
2023-01-20T18:16:37.479Z,81.59
2023-01-20T18:19:04.898Z,81.97
2023-01-20T18:21:37.155Z,82.01
2023-01-20T18:24:07.484Z,82.13
2023-01-20T18:26:38.405Z,82.21
2023-01-20T18:29:10.270Z,82.25
2023-01-20T18:31:37.311Z,82.36
2023-01-20T18:34:07.799Z,82.59
2023-01-20T18:36:38.862Z,82.38
2023-01-20T18:39:21.966Z,82.36
2023-01-20T18:41:50.688Z,82.33
2023-01-20T18:44:19.054Z,82.50
2023-01-20T18:46:46.253Z,82.39
2023-01-20T18:49:15.868Z,82.61
2023-01-20T18:51:43.454Z,82.69
2023-01-20T18:54:20.976Z,82.54
2023-01-20T18:56:48.201Z,82.53
2023-01-20T18:59:15.326Z,82.64
2023-01-20T19:01:43.039Z,82.67
2023-01-20T19:04:12.446Z,82.92
2023-01-20T19:06:42.944Z,82.96
2023-01-20T19:09:11.522Z,82.81
2023-01-20T19:11:41.214Z,82.95
2023-01-20T19:14:12.600Z,83.02
2023-01-20T19:16:45.115Z,83.42
2023-01-20T19:19:13.268Z,82.91
2023-01-20T19:21:40.242Z,83.42
2023-01-20T19:24:08.094Z,83.14
2023-01-20T19:26:38.994Z,83.49
2023-01-20T19:29:08.908Z,83.31
2023-01-20T19:31:39.295Z,83.21
2023-01-20T19:34:08.192Z,83.35
2023-01-20T19:36:35.489Z,83.47
2023-01-20T19:39:03.161Z,83.80
2023-01-20T19:41:34.435Z,83.89
2023-01-20T19:44:04.449Z,84.12
2023-01-20T19:46:34.596Z,83.80
2023-01-20T19:49:02.659Z,83.77
2023-01-20T19:51:31.387Z,83.43
2023-01-20T19:54:01.058Z,83.50
2023-01-20T19:56:31.595Z,83.41
2023-01-20T19:59:00.803Z,83.56
2023-01-20T20:01:36.895Z,83.43
2023-01-20T20:04:09.936Z,83.22
2023-01-20T20:06:40.541Z,83.33
2023-01-20T20:09:14.470Z,83.62
2023-01-20T20:11:42.103Z,83.83
2023-01-20T20:14:13.343Z,83.73
2023-01-20T20:16:40.957Z,83.82
2023-01-20T20:19:11.338Z,83.87
2023-01-20T20:21:38.290Z,83.93
2023-01-20T20:24:05.681Z,84.20
2023-01-20T20:26:37.640Z,84.03
2023-01-20T20:29:07.333Z,83.93
2023-01-20T20:31:37.560Z,83.88
2023-01-20T20:34:12.119Z,84.00
2023-01-20T20:36:39.886Z,83.78
2023-01-20T20:39:07.882Z,83.38
2023-01-20T20:41:36.648Z,83.64
2023-01-20T20:44:04.600Z,83.80
2023-01-20T20:46:32.306Z,84.04
2023-01-20T20:49:01.213Z,83.97
2023-01-20T20:51:31.882Z,84.20
2023-01-20T20:54:02.215Z,84.21
2023-01-20T20:56:31.833Z,83.88
2023-01-20T20:59:03.732Z,84.17
2023-01-20T21:01:33.750Z,83.80
2023-01-20T21:04:03.106Z,83.99
2023-01-20T21:06:30.792Z,84.16
2023-01-20T21:08:58.821Z,84.08
2023-01-20T21:11:26.453Z,84.14
2023-01-20T21:13:53.608Z,84.08
2023-01-20T21:16:22.987Z,83.86
2023-01-20T21:18:52.557Z,84.17
2023-01-20T21:21:20.458Z,84.20
2023-01-20T21:23:53.247Z,84.57
2023-01-20T21:26:20.994Z,84.25
2023-01-20T21:28:49.356Z,84.00
2023-01-20T21:31:21.275Z,84.06
2023-01-20T21:33:54.486Z,84.11
2023-01-20T21:36:22.191Z,84.12
2023-01-20T21:38:49.786Z,83.88
2023-01-20T21:41:18.277Z,84.30
2023-01-20T21:44:05.760Z,84.19
2023-01-20T21:46:39.740Z,84.60
2023-01-20T21:49:29.095Z,84.58
2023-01-20T21:52:15.403Z,84.40
2023-01-20T21:54:44.844Z,84.95
2023-01-20T21:57:11.913Z,84.70
2023-01-20T21:59:39.307Z,84.01
2023-01-20T22:02:07.645Z,84.23
2023-01-20T22:04:34.667Z,84.29
2023-01-20T22:07:02.205Z,84.43
2023-01-20T22:09:29.188Z,84.33
2023-01-20T22:11:56.122Z,84.11
2023-01-20T22:14:23.221Z,84.05
2023-01-20T22:16:50.210Z,84.31
2023-01-20T22:19:17.499Z,84.08
2023-01-20T22:21:44.428Z,84.42
2023-01-20T22:24:11.559Z,84.74
2023-01-20T22:26:38.621Z,84.37
2023-01-20T22:29:05.621Z,84.85
2023-01-20T22:31:34.216Z,84.73
2023-01-20T22:34:04.485Z,84.40
2023-01-20T22:36:31.646Z,84.71
2023-01-20T22:38:58.942Z,84.71
2023-01-20T22:41:26.343Z,84.57
2023-01-20T22:43:53.681Z,84.63
2023-01-20T22:46:24.260Z,84.95
2023-01-20T22:48:51.331Z,85.09
2023-01-20T22:51:36.162Z,84.88
2023-01-20T22:54:03.332Z,84.95
2023-01-20T22:56:32.624Z,84.89
2023-01-20T22:59:00.506Z,84.94
2023-01-20T23:01:32.496Z,84.90
2023-01-20T23:04:03.052Z,84.54
2023-01-20T23:06:33.688Z,84.77
2023-01-20T23:09:03.442Z,84.50
2023-01-20T23:11:31.021Z,84.77
2023-01-20T23:13:58.359Z,84.76
2023-01-20T23:16:25.353Z,84.84
2023-01-20T23:18:52.626Z,84.80
2023-01-20T23:21:21.171Z,84.97
2023-01-20T23:23:54.563Z,85.04
2023-01-20T23:26:26.330Z,85.23
2023-01-20T23:28:55.170Z,85.42
2023-01-20T23:31:24.667Z,85.65
2023-01-20T23:33:53.720Z,85.22
2023-01-20T23:36:24.309Z,85.70
2023-01-20T23:38:54.603Z,85.64
2023-01-20T23:41:21.791Z,85.76
2023-01-20T23:43:48.856Z,85.53
2023-01-20T23:46:15.778Z,85.93
2023-01-20T23:48:45.040Z,85.88
2023-01-20T23:51:12.000Z,85.91
2023-01-20T23:53:40.470Z,86.09
2023-01-20T23:56:13.324Z,85.92
2023-01-20T23:58:40.591Z,86.22
